createdAt,value
2018-12-05T00:00:14.570Z,99.90
2018-12-05T00:02:50.825Z,99.90
2018-12-05T00:05:26.993Z,99.90
2018-12-05T00:08:03.308Z,99.90
2018-12-05T00:10:39.207Z,99.90
2018-12-05T00:13:20.490Z,99.90
2018-12-05T00:15:57.881Z,99.90
2018-12-05T00:18:34.183Z,99.90
2018-12-05T00:21:11.158Z,99.90
2018-12-05T00:23:47.831Z,99.90
2018-12-05T00:26:23.877Z,99.90
2018-12-05T00:29:00.301Z,99.90
2018-12-05T00:31:37.984Z,99.90
2018-12-05T00:34:14.552Z,99.90
2018-12-05T00:36:50.503Z,99.90
2018-12-05T00:39:26.519Z,99.90
2018-12-05T00:42:02.638Z,99.90
2018-12-05T00:44:39.595Z,99.90
2018-12-05T00:47:15.756Z,99.90
2018-12-05T00:49:51.590Z,99.90
2018-12-05T00:52:27.577Z,99.90
2018-12-05T00:55:03.750Z,99.90
2018-12-05T00:57:39.701Z,99.90
2018-12-05T01:00:16.892Z,99.90
2018-12-05T01:02:53.406Z,99.90
2018-12-05T01:05:30.379Z,99.90
2018-12-05T01:08:06.182Z,99.90
2018-12-05T01:10:42.638Z,99.90
2018-12-05T01:13:18.917Z,99.90
2018-12-05T01:15:54.752Z,99.90
2018-12-05T01:18:30.804Z,99.90
2018-12-05T01:21:06.799Z,99.90
2018-12-05T01:23:43.009Z,99.90
2018-12-05T01:26:19.018Z,99.90
2018-12-05T01:28:55.041Z,99.90
2018-12-05T01:31:30.660Z,99.90
2018-12-05T01:34:06.613Z,99.90
2018-12-05T01:36:42.581Z,99.90
2018-12-05T01:39:18.653Z,99.90
2018-12-05T01:41:54.671Z,99.90
2018-12-05T01:44:30.723Z,99.90
2018-12-05T01:47:06.525Z,99.90
2018-12-05T01:49:42.586Z,99.90
2018-12-05T01:52:18.409Z,99.90
2018-12-05T01:54:54.271Z,99.90
2018-12-05T01:57:30.191Z,99.90
2018-12-05T02:00:06.797Z,99.90
2018-12-05T02:02:43.619Z,99.90
2018-12-05T02:05:19.927Z,99.90
2018-12-05T02:07:55.957Z,99.90
2018-12-05T02:10:31.892Z,99.90
2018-12-05T02:13:07.764Z,99.90
2018-12-05T02:15:43.832Z,99.90
2018-12-05T02:18:19.785Z,99.90
2018-12-05T02:20:56.169Z,99.90
2018-12-05T02:23:32.600Z,99.90
2018-12-05T02:26:08.367Z,99.90
2018-12-05T02:28:44.360Z,99.90
2018-12-05T02:31:21.311Z,99.90
2018-12-05T02:33:57.142Z,99.90
2018-12-05T02:36:33.113Z,99.90
2018-12-05T02:39:09.782Z,99.90
2018-12-05T02:41:45.783Z,99.90
2018-12-05T02:44:21.833Z,99.90
2018-12-05T02:46:58.052Z,99.90
2018-12-05T02:49:36.250Z,99.90
2018-12-05T02:52:13.503Z,99.90
2018-12-05T02:54:49.537Z,99.90
2018-12-05T02:57:25.664Z,99.90
2018-12-05T03:00:01.493Z,99.90
2018-12-05T03:02:38.453Z,99.90
2018-12-05T03:05:14.316Z,99.90
2018-12-05T03:07:50.101Z,99.90
2018-12-05T03:10:26.094Z,99.90
2018-12-05T03:13:02.004Z,99.90
2018-12-05T03:15:38.058Z,99.90
2018-12-05T03:18:13.925Z,99.90
2018-12-05T03:20:49.662Z,99.90
2018-12-05T03:23:25.446Z,99.90
2018-12-05T03:26:01.325Z,99.90
2018-12-05T03:28:37.231Z,99.90
2018-12-05T03:31:14.071Z,99.90
2018-12-05T03:33:49.899Z,99.90
2018-12-05T03:36:25.921Z,99.90
2018-12-05T03:39:01.633Z,99.90
2018-12-05T03:41:37.884Z,99.90
2018-12-05T03:44:13.951Z,99.90
2018-12-05T03:46:50.853Z,99.90
2018-12-05T03:49:26.420Z,99.90
2018-12-05T03:52:02.392Z,99.90
2018-12-05T03:54:39.095Z,99.90
2018-12-05T03:57:15.203Z,99.90
2018-12-05T03:59:50.882Z,99.90
2018-12-05T04:02:26.874Z,99.90
2018-12-05T04:05:02.978Z,99.90
2018-12-05T04:07:38.826Z,99.90
2018-12-05T04:10:14.566Z,99.90
2018-12-05T04:12:50.814Z,99.90
2018-12-05T04:15:29.772Z,99.90
2018-12-05T04:18:06.114Z,99.90
2018-12-05T04:20:42.872Z,99.90
2018-12-05T04:23:18.836Z,99.90
2018-12-05T04:25:55.364Z,99.90
2018-12-05T04:28:31.031Z,99.90
2018-12-05T04:31:07.879Z,99.90
2018-12-05T04:33:46.825Z,99.90
2018-12-05T04:36:24.261Z,99.90
2018-12-05T04:39:00.253Z,99.90
2018-12-05T04:41:36.120Z,99.90
2018-12-05T04:44:12.262Z,99.90
2018-12-05T04:46:47.909Z,99.90
2018-12-05T04:49:23.649Z,99.90
2018-12-05T04:52:00.054Z,99.90
2018-12-05T04:54:36.237Z,99.90
2018-12-05T04:57:12.423Z,99.90
2018-12-05T04:59:48.326Z,99.90
2018-12-05T05:02:24.947Z,99.90
2018-12-05T05:05:02.121Z,99.90
2018-12-05T05:07:38.084Z,99.90
2018-12-05T05:10:16.672Z,99.90
2018-12-05T05:12:53.690Z,99.90
2018-12-05T05:15:29.781Z,99.90
2018-12-05T05:18:06.130Z,99.90
2018-12-05T05:20:42.515Z,99.90
2018-12-05T05:23:18.290Z,99.90
2018-12-05T05:25:54.097Z,99.90
2018-12-05T05:28:29.715Z,99.90
2018-12-05T05:31:05.856Z,99.90
2018-12-05T05:33:41.785Z,99.90
2018-12-05T05:36:17.860Z,99.90
2018-12-05T05:38:55.895Z,99.90
2018-12-05T05:41:33.604Z,99.90
2018-12-05T05:44:10.281Z,99.90
2018-12-05T05:46:46.383Z,99.90
2018-12-05T05:49:22.249Z,99.90
2018-12-05T05:51:58.276Z,99.90
2018-12-05T05:54:34.340Z,99.90
2018-12-05T05:57:10.425Z,99.90
2018-12-05T05:59:45.931Z,99.90
2018-12-05T06:02:21.775Z,99.90
2018-12-05T06:04:57.579Z,99.90
2018-12-05T06:07:33.726Z,99.90
2018-12-05T06:10:10.170Z,99.90
2018-12-05T06:12:46.729Z,99.90
2018-12-05T06:15:22.858Z,99.90
2018-12-05T06:17:58.927Z,99.90
2018-12-05T06:20:34.619Z,99.90
2018-12-05T06:23:10.617Z,99.90
2018-12-05T06:25:47.437Z,99.90
2018-12-05T06:28:23.608Z,99.90
2018-12-05T06:30:59.442Z,99.90
2018-12-05T06:33:35.385Z,99.90
2018-12-05T06:36:11.087Z,99.90
2018-12-05T06:38:47.062Z,99.90
2018-12-05T06:41:23.029Z,99.90
2018-12-05T06:43:58.793Z,99.90
2018-12-05T06:46:34.860Z,99.90
2018-12-05T06:49:11.043Z,99.90
2018-12-05T06:51:48.786Z,99.90
2018-12-05T06:54:25.598Z,99.90
2018-12-05T06:57:02.224Z,99.90
2018-12-05T06:59:38.977Z,99.90
2018-12-05T07:02:15.455Z,99.90
2018-12-05T07:04:51.825Z,99.90
2018-12-05T07:07:28.577Z,99.90
2018-12-05T07:10:05.101Z,99.90
2018-12-05T07:12:41.735Z,99.90
2018-12-05T07:15:18.227Z,99.90
2018-12-05T07:17:54.601Z,99.90
2018-12-05T07:20:30.979Z,99.90
2018-12-05T07:23:06.732Z,99.90
2018-12-05T07:25:42.967Z,99.90
2018-12-05T07:28:19.318Z,99.90
2018-12-05T07:30:55.299Z,99.90
2018-12-05T07:33:31.184Z,99.90
2018-12-05T07:36:07.155Z,99.90
2018-12-05T07:38:43.358Z,99.90
2018-12-05T07:41:19.699Z,99.90
2018-12-05T07:43:55.760Z,99.90
2018-12-05T07:46:31.722Z,99.90
2018-12-05T07:49:09.604Z,99.90
2018-12-05T07:51:45.620Z,99.90
2018-12-05T07:54:21.414Z,99.90
2018-12-05T07:56:57.322Z,99.90
2018-12-05T07:59:33.190Z,99.90
2018-12-05T08:02:09.896Z,99.90
2018-12-05T08:04:45.903Z,99.90
2018-12-05T08:07:21.815Z,99.90
2018-12-05T08:09:57.702Z,99.90
2018-12-05T08:12:33.678Z,99.90
2018-12-05T08:15:11.062Z,99.90
2018-12-05T08:17:47.553Z,99.90
2018-12-05T08:20:23.758Z,99.90
2018-12-05T08:22:59.396Z,99.90
2018-12-05T08:25:35.454Z,99.90
2018-12-05T08:28:11.534Z,99.90
2018-12-05T08:30:48.288Z,99.90
2018-12-05T08:33:24.435Z,99.90
2018-12-05T08:36:00.099Z,99.90
2018-12-05T08:38:36.153Z,99.90
2018-12-05T08:41:12.542Z,99.90
2018-12-05T08:43:49.062Z,99.90
2018-12-05T08:46:24.861Z,99.90
2018-12-05T08:49:01.214Z,99.90
2018-12-05T08:51:36.758Z,99.90
2018-12-05T08:54:13.358Z,99.90
2018-12-05T08:56:49.632Z,99.90
2018-12-05T08:59:25.290Z,99.90
2018-12-05T09:02:01.259Z,99.90
2018-12-05T09:04:38.842Z,99.90
2018-12-05T09:07:14.996Z,99.90
2018-12-05T09:09:50.880Z,99.90
2018-12-05T09:12:26.694Z,99.90
2018-12-05T09:15:02.508Z,99.90
2018-12-05T09:17:39.357Z,99.90
2018-12-05T09:20:15.215Z,99.90
2018-12-05T09:22:51.044Z,99.90
2018-12-05T09:25:27.031Z,99.90
2018-12-05T09:28:03.045Z,99.90
2018-12-05T09:30:38.929Z,99.90
2018-12-05T09:33:15.860Z,99.90
2018-12-05T09:35:51.973Z,99.90
2018-12-05T09:38:27.785Z,99.90
2018-12-05T09:41:03.695Z,99.90
2018-12-05T09:43:39.637Z,99.90
2018-12-05T09:46:15.530Z,99.90
2018-12-05T09:48:51.562Z,99.90
2018-12-05T09:51:27.368Z,99.90
2018-12-05T09:54:03.510Z,99.90
2018-12-05T09:56:40.012Z,99.90
2018-12-05T09:59:16.027Z,99.90
2018-12-05T10:01:51.932Z,99.90
2018-12-05T10:04:27.670Z,99.90
2018-12-05T10:07:04.014Z,99.90
2018-12-05T10:09:40.104Z,99.90
2018-12-05T10:12:16.039Z,99.90
2018-12-05T10:14:52.017Z,99.90
2018-12-05T10:17:27.988Z,99.90
2018-12-05T10:20:04.222Z,99.90
2018-12-05T10:22:40.672Z,99.90
2018-12-05T10:25:16.616Z,99.90
2018-12-05T10:27:52.127Z,99.90
2018-12-05T10:30:28.380Z,99.90
2018-12-05T10:33:04.952Z,99.90
2018-12-05T10:35:41.702Z,99.30
2018-12-05T10:38:17.933Z,99.40
2018-12-05T10:40:54.229Z,99.90
2018-12-05T10:43:29.758Z,99.20
2018-12-05T10:46:05.744Z,99.30
2018-12-05T10:48:41.591Z,99.00
2018-12-05T10:51:17.445Z,99.00
2018-12-05T10:53:53.109Z,98.40
2018-12-05T10:56:28.824Z,98.40
2018-12-05T10:59:04.824Z,98.50
2018-12-05T11:01:45.772Z,98.80
2018-12-05T11:04:27.530Z,98.40
2018-12-05T11:07:08.266Z,98.30
2018-12-05T11:09:49.074Z,98.30
2018-12-05T11:13:29.536Z,97.40
2018-12-05T11:16:12.823Z,97.30
2018-12-05T11:18:53.803Z,97.60
2018-12-05T11:21:35.001Z,97.40
2018-12-05T11:24:43.269Z,96.50
2018-12-05T11:27:19.917Z,96.90
2018-12-05T11:29:55.736Z,96.50
2018-12-05T11:32:31.941Z,96.90
2018-12-05T11:35:08.405Z,97.10
2018-12-05T11:37:44.252Z,96.50
2018-12-05T11:40:20.640Z,95.60
2018-12-05T11:42:56.801Z,96.40
2018-12-05T11:45:33.314Z,95.60
2018-12-05T11:48:09.844Z,95.10
2018-12-05T11:50:45.606Z,95.00
2018-12-05T11:53:21.355Z,95.20
2018-12-05T11:55:57.196Z,94.50
2018-12-05T11:58:33.041Z,94.90
2018-12-05T12:01:09.592Z,95.00
2018-12-05T12:03:45.877Z,95.90
2018-12-05T12:06:23.916Z,95.20
2018-12-05T12:09:00.869Z,95.20
2018-12-05T12:11:37.728Z,94.40
2018-12-05T12:14:13.944Z,94.00
2018-12-05T12:16:49.740Z,93.60
2018-12-05T12:19:25.546Z,94.20
2018-12-05T12:22:01.555Z,94.00
2018-12-05T12:24:37.433Z,93.10
2018-12-05T12:27:13.248Z,93.50
2018-12-05T12:29:48.883Z,93.30
2018-12-05T12:32:26.186Z,93.20
2018-12-05T12:35:02.561Z,93.20
2018-12-05T12:37:38.710Z,93.40
2018-12-05T12:40:17.424Z,92.90
2018-12-05T12:42:55.074Z,93.30
2018-12-05T12:45:31.841Z,93.40
2018-12-05T12:48:07.695Z,93.60
2018-12-05T12:50:45.909Z,93.10
2018-12-05T12:53:21.571Z,93.30
2018-12-05T12:55:58.334Z,92.60
2018-12-05T12:58:34.374Z,92.90
2018-12-05T13:01:10.381Z,92.80
2018-12-05T13:03:48.617Z,93.10
2018-12-05T13:06:25.106Z,92.20
2018-12-05T13:09:01.003Z,92.30
2018-12-05T13:11:36.837Z,92.10
2018-12-05T13:14:12.767Z,92.10
2018-12-05T13:16:48.704Z,91.80
2018-12-05T13:19:24.990Z,92.20
2018-12-05T13:22:01.408Z,92.10
2018-12-05T13:24:37.407Z,92.00
2018-12-05T13:27:13.336Z,91.70
2018-12-05T13:29:48.984Z,92.10
2018-12-05T13:32:24.902Z,91.90
2018-12-05T13:35:01.136Z,91.60
2018-12-05T13:37:36.938Z,91.30
2018-12-05T13:40:12.631Z,91.10
2018-12-05T13:42:48.505Z,91.30
2018-12-05T13:45:25.146Z,91.30
2018-12-05T13:48:01.338Z,90.80
2018-12-05T13:50:37.089Z,90.00
2018-12-05T13:53:13.710Z,88.80
2018-12-05T13:55:50.193Z,88.40
2018-12-05T13:58:25.926Z,86.90
2018-12-05T14:01:01.849Z,87.10
2018-12-05T14:03:38.443Z,86.10
2018-12-05T14:06:15.012Z,86.60
2018-12-05T14:08:50.893Z,86.60
2018-12-05T14:11:26.877Z,86.20
2018-12-05T14:14:02.682Z,85.50
2018-12-05T14:16:39.867Z,85.00
2018-12-05T14:19:15.753Z,85.60
2018-12-05T14:21:51.516Z,86.10
2018-12-05T14:24:27.550Z,87.30
2018-12-05T14:27:03.467Z,89.80
2018-12-05T14:29:39.432Z,91.20
2018-12-05T14:32:16.589Z,92.40
2018-12-05T14:34:53.206Z,93.40
2018-12-05T14:37:29.401Z,94.40
2018-12-05T14:40:06.046Z,95.20
2018-12-05T14:42:42.824Z,96.10
2018-12-05T14:45:18.797Z,96.60
2018-12-05T14:47:54.865Z,97.20
2018-12-05T14:50:30.668Z,97.60
2018-12-05T14:53:08.016Z,97.90
2018-12-05T14:55:44.345Z,98.30
2018-12-05T14:58:21.101Z,98.60
2018-12-05T15:00:57.743Z,99.00
2018-12-05T15:03:36.579Z,98.90
2018-12-05T15:06:14.663Z,99.40
2018-12-05T15:08:52.685Z,99.60
2018-12-05T15:11:30.718Z,99.90
2018-12-05T15:14:08.157Z,99.90
2018-12-05T15:16:46.873Z,99.90
2018-12-05T15:19:23.094Z,99.90
2018-12-05T15:22:00.149Z,99.90
2018-12-05T15:24:36.515Z,99.90
2018-12-05T15:27:14.268Z,99.90
2018-12-05T15:29:50.854Z,99.90
2018-12-05T15:32:29.100Z,99.90
2018-12-05T15:35:05.289Z,99.90
2018-12-05T15:37:41.041Z,99.90
2018-12-05T15:40:16.794Z,99.90
2018-12-05T15:42:52.928Z,99.90
2018-12-05T15:45:29.038Z,99.90
2018-12-05T15:48:05.097Z,99.90
2018-12-05T15:50:41.538Z,99.90
2018-12-05T15:53:17.482Z,99.90
2018-12-05T15:55:53.629Z,99.90
2018-12-05T15:58:29.438Z,99.90
2018-12-05T16:01:05.906Z,99.90
2018-12-05T16:03:43.400Z,99.90
2018-12-05T16:06:19.564Z,99.90
2018-12-05T16:08:56.256Z,99.90
2018-12-05T16:11:33.108Z,99.90
2018-12-05T16:14:09.339Z,99.90
2018-12-05T16:16:46.897Z,99.90
2018-12-05T16:19:23.639Z,99.90
2018-12-05T16:21:59.530Z,99.90
2018-12-05T16:24:35.528Z,99.90
2018-12-05T16:27:13.514Z,99.90
2018-12-05T16:29:51.361Z,99.90
2018-12-05T16:32:27.563Z,99.90
2018-12-05T16:35:05.233Z,99.90
2018-12-05T16:37:47.727Z,99.90
2018-12-05T16:40:24.807Z,99.90
2018-12-05T16:43:02.969Z,99.90
2018-12-05T16:45:45.200Z,99.90
2018-12-05T16:48:22.145Z,99.90
2018-12-05T16:50:58.018Z,99.90
2018-12-05T16:53:36.261Z,99.90
2018-12-05T16:56:16.001Z,99.90
2018-12-05T16:58:52.130Z,99.90
2018-12-05T17:01:28.739Z,99.90
2018-12-05T17:04:04.757Z,99.90
2018-12-05T17:06:42.208Z,99.90
2018-12-05T17:09:25.658Z,99.90
2018-12-05T17:11:56.213Z,99.90
2018-12-05T17:14:34.393Z,99.90
2018-12-05T17:17:11.657Z,99.90
2018-12-05T17:19:48.078Z,99.90
2018-12-05T17:22:24.602Z,99.90
2018-12-05T17:25:01.959Z,99.90
2018-12-05T17:27:39.678Z,99.90
2018-12-05T17:30:16.775Z,99.90
2018-12-05T17:32:52.702Z,99.90
2018-12-05T17:35:29.829Z,99.90
2018-12-05T17:38:06.246Z,99.90
2018-12-05T17:40:42.481Z,99.90
2018-12-05T17:43:19.492Z,99.90
2018-12-05T17:45:55.194Z,99.90
2018-12-05T17:48:31.603Z,99.90
2018-12-05T17:51:11.391Z,99.90
2018-12-05T17:53:51.901Z,99.90
2018-12-05T17:56:28.463Z,99.90
2018-12-05T17:59:06.590Z,99.90
2018-12-05T18:01:44.259Z,99.90
2018-12-05T18:04:20.344Z,99.90
2018-12-05T18:06:57.501Z,99.90
2018-12-05T18:09:34.604Z,99.90
2018-12-05T18:12:11.592Z,99.90
2018-12-05T18:14:48.463Z,99.90
2018-12-05T18:17:25.515Z,99.90
2018-12-05T18:20:02.417Z,99.90
2018-12-05T18:22:39.224Z,99.90
2018-12-05T18:25:15.845Z,99.90
2018-12-05T18:27:52.919Z,99.90
2018-12-05T18:30:29.341Z,99.90
2018-12-05T18:33:06.799Z,99.90
2018-12-05T18:35:43.195Z,99.90
2018-12-05T18:38:20.614Z,99.90
2018-12-05T18:40:57.161Z,99.90
2018-12-05T18:43:35.157Z,99.90
2018-12-05T18:46:14.734Z,99.90
2018-12-05T18:48:50.911Z,99.90
2018-12-05T18:51:27.846Z,99.90
2018-12-05T18:54:06.693Z,99.90
2018-12-05T18:56:43.205Z,99.90
2018-12-05T18:59:21.058Z,99.90
2018-12-05T19:01:57.506Z,99.90
2018-12-05T19:04:35.103Z,99.90
2018-12-05T19:07:11.635Z,99.90
2018-12-05T19:09:48.984Z,99.90
2018-12-05T19:12:25.449Z,99.90
2018-12-05T19:15:03.822Z,99.90
2018-12-05T19:17:39.940Z,99.90
2018-12-05T19:20:16.823Z,99.90
2018-12-05T19:23:05.045Z,99.90
2018-12-05T19:25:42.880Z,99.90
2018-12-05T19:28:18.819Z,99.90
2018-12-05T19:30:56.568Z,99.90
2018-12-05T19:33:33.619Z,99.90
2018-12-05T19:36:11.554Z,99.90
2018-12-05T19:38:48.421Z,99.90
2018-12-05T19:41:25.913Z,99.90
2018-12-05T19:44:02.397Z,99.90
2018-12-05T19:46:39.558Z,99.90
2018-12-05T19:49:17.256Z,99.90
2018-12-05T19:51:54.578Z,99.90
2018-12-05T19:54:31.254Z,99.90
2018-12-05T19:57:08.389Z,99.90
2018-12-05T19:59:46.002Z,99.90
2018-12-05T20:02:22.044Z,99.90
2018-12-05T20:05:01.565Z,99.90
2018-12-05T20:07:38.693Z,99.90
2018-12-05T20:10:18.538Z,99.90
2018-12-05T20:12:54.599Z,99.90
2018-12-05T20:15:32.292Z,99.90
2018-12-05T20:18:08.232Z,99.90
2018-12-05T20:20:44.107Z,99.90
2018-12-05T20:23:24.048Z,99.90
2018-12-05T20:26:01.792Z,99.90
2018-12-05T20:28:38.474Z,99.90
2018-12-05T20:31:15.249Z,99.90
2018-12-05T20:33:52.813Z,99.90
2018-12-05T20:36:28.970Z,99.90
2018-12-05T20:39:11.469Z,99.90
2018-12-05T20:41:49.429Z,99.90
2018-12-05T20:44:26.800Z,99.90
2018-12-05T20:47:02.997Z,99.90
2018-12-05T20:49:40.227Z,99.90
2018-12-05T20:52:17.411Z,99.90
2018-12-05T20:54:53.251Z,99.90
2018-12-05T20:57:29.357Z,99.90
2018-12-05T21:00:06.993Z,99.90
2018-12-05T21:02:43.723Z,99.90
2018-12-05T21:05:20.618Z,99.90
2018-12-05T21:07:57.297Z,99.90
2018-12-05T21:10:33.660Z,99.90
2018-12-05T21:13:10.568Z,99.90
2018-12-05T21:15:46.942Z,99.90
2018-12-05T21:18:24.049Z,99.90
2018-12-05T21:21:00.811Z,99.90
2018-12-05T21:23:37.071Z,99.90
2018-12-05T21:26:13.735Z,99.90
2018-12-05T21:28:50.621Z,99.90
2018-12-05T21:31:26.705Z,99.90
2018-12-05T21:34:05.540Z,99.90
2018-12-05T21:36:42.746Z,99.90
2018-12-05T21:39:19.389Z,99.90
2018-12-05T21:41:56.101Z,99.90
2018-12-05T21:44:32.161Z,99.90
2018-12-05T21:47:08.174Z,99.90
2018-12-05T21:49:44.885Z,99.90
2018-12-05T21:52:22.931Z,99.90
2018-12-05T21:54:59.152Z,99.90
2018-12-05T21:57:35.552Z,99.90
2018-12-05T22:00:12.966Z,99.90
2018-12-05T22:02:49.044Z,99.90
2018-12-05T22:05:24.829Z,99.90
2018-12-05T22:08:01.633Z,99.90
2018-12-05T22:10:37.786Z,99.90
2018-12-05T22:13:13.707Z,99.90
2018-12-05T22:15:50.424Z,99.90
2018-12-05T22:18:26.395Z,99.90
2018-12-05T22:21:02.584Z,99.90
2018-12-05T22:23:39.082Z,99.90
2018-12-05T22:26:17.418Z,99.90
2018-12-05T22:28:52.932Z,99.90
2018-12-05T22:31:29.423Z,99.90
2018-12-05T22:34:06.020Z,99.90
2018-12-05T22:36:42.109Z,99.90
2018-12-05T22:39:18.034Z,99.90
2018-12-05T22:41:56.023Z,99.90
2018-12-05T22:44:32.544Z,99.90
2018-12-05T22:47:08.486Z,99.90
2018-12-05T22:49:46.852Z,99.90
2018-12-05T22:52:23.470Z,99.90
2018-12-05T22:55:00.179Z,99.90
2018-12-05T22:57:36.217Z,99.90
2018-12-05T23:00:18.043Z,99.90
2018-12-05T23:02:57.270Z,99.90
2018-12-05T23:05:33.485Z,99.90
2018-12-05T23:08:09.512Z,99.90
2018-12-05T23:10:47.030Z,99.90
2018-12-05T23:13:23.057Z,99.90
2018-12-05T23:15:59.038Z,99.90
2018-12-05T23:18:35.182Z,99.90
2018-12-05T23:21:11.536Z,99.90
2018-12-05T23:23:48.329Z,99.90
2018-12-05T23:26:24.285Z,99.90
2018-12-05T23:29:00.341Z,99.90
2018-12-05T23:31:36.283Z,99.90
2018-12-05T23:34:12.233Z,99.90
2018-12-05T23:36:48.303Z,99.90
2018-12-05T23:39:24.223Z,99.90
2018-12-05T23:42:00.863Z,99.90
2018-12-05T23:44:37.323Z,99.90
2018-12-05T23:47:14.902Z,99.90
2018-12-05T23:49:50.716Z,99.90
2018-12-05T23:52:26.679Z,99.90
2018-12-05T23:55:02.802Z,99.90
2018-12-05T23:57:38.442Z,99.90
